This is the latest recevied weather packets stored in our database for station/object SQ9PDE-13. If no packets are shown the sender has not sent any weather packets the latest 10 day(s).
| Time | Temp. | Humidity | Pressure | Rain* | Wind** | Luminosity | Snow |
|---|---|---|---|---|---|---|---|
| 1787822497 | 24.44° C | 43% | 1022.6 hPa | - | - | - | - |
| 1787822196 | 24.44° C | 42% | 1022.7 hPa | - | - | - | - |
| 1787821896 | 25.56° C | 41% | 1022.6 hPa | - | - | - | - |
| 1787821595 | 25° C | 43% | 1022.6 hPa | - | - | - | - |
| 1787821295 | 24.44° C | 44% | 1022.7 hPa | - | - | - | - |
| 1787820994 | 24.44° C | 43% | 1022.7 hPa | - | - | - | - |
| 1787820694 | 23.33° C | 46% | 1022.9 hPa | - | - | - | - |
| 1787820393 | 24.44° C | 43% | 1022.8 hPa | - | - | - | - |
| 1787820093 | 26.11° C | 41% | 1022.5 hPa | - | - | - | - |
| 1787819792 | 26.11° C | 42% | 1022.5 hPa | - | - | - | - |
| 1787819492 | 23.89° C | 45% | 1022.9 hPa | - | - | - | - |
| 1787819191 | 25.56° C | 41% | 1022.7 hPa | - | - | - | - |
| 1787818923 | 25° C | 43% | 1022.7 hPa | - | - | - | - |
| 1787818891 | 25° C | 43% | 1022.7 hPa | - | - | - | - |
| 1787818590 | 24.44° C | 44% | 1022.8 hPa | - | - | - | - |
| 1787818290 | 23.89° C | 46% | 1022.9 hPa | - | - | - | - |
| 1787817989 | 22.78° C | 47% | 1023.1 hPa | - | - | - | - |
| 1787817689 | 23.33° C | 45% | 1023 hPa | - | - | - | - |
| 1787817477 | 23.33° C | 47% | 1023 hPa | - | - | - | - |
| 1787817388 | 23.33° C | 47% | 1023 hPa | - | - | - | - |
| 1787817088 | 23.89° C | 46% | 1022.9 hPa | - | - | - | - |
| 1787816787 | 22.78° C | 47% | 1023.1 hPa | - | - | - | - |
| 1787816487 | 22.78° C | 50% | 1023.1 hPa | - | - | - | - |
| 1787816257 | 18.89° C | 59% | 1023.3 hPa | - | - | - | - |
| 1787816186 | 23.33° C | 47% | 1023 hPa | - | - | - | - |
* Rain since midnight (hover to see other rain measurements)
** Current wind speed in m/s (hover to see current wind gust speed)